Time;durP1;ratioP1;P1;durP2;ratioP2;P2;SDS_P1;SDS_P2;PMS_P1;PMS_P2;Temp;Humidity;BMP_temperature;BMP_pressure;BME280_temperature;BME280_humidity;BME280_pressure;Samples;Min_cycle;Max_cycle;Signal;HPM_P1;HPM_P2
2022/08/31 00:04:10;;;;;;;4.55;3.20;;;21.90;99.90;;;;;;5117324;28;20038;-74
2022/08/31 00:06:36;;;;;;;5.97;3.20;;;21.80;99.90;;;;;;5115535;28;20031;-74
2022/08/31 00:09:04;;;;;;;10.88;3.38;;;21.80;99.90;;;;;;5104843;28;20024;-73
2022/08/31 00:11:34;;;;;;;5.38;3.38;;;21.70;99.90;;;;;;5117267;28;20102;-74
2022/08/31 00:14:04;;;;;;;5.37;3.50;;;21.60;99.90;;;;;;5115779;28;20408;-74
2022/08/31 00:16:32;;;;;;;6.53;3.40;;;21.60;99.90;;;;;;5117217;28;20761;-74
2022/08/31 00:18:58;;;;;;;5.22;3.17;;;21.50;99.90;;;;;;5116133;28;20047;-74
2022/08/31 00:21:25;;;;;;;9.65;3.45;;;21.50;99.90;;;;;;5116085;28;20518;-74
2022/08/31 00:23:52;;;;;;;5.95;3.40;;;21.50;99.90;;;;;;5117101;28;20053;-74
2022/08/31 00:26:19;;;;;;;9.23;3.58;;;21.40;99.90;;;;;;5116997;28;20103;-74
2022/08/31 00:28:45;;;;;;;7.03;3.75;;;21.40;99.90;;;;;;5110859;28;20032;-73
2022/08/31 00:31:11;;;;;;;9.18;3.95;;;21.30;99.90;;;;;;5117151;28;20047;-73
2022/08/31 00:33:38;;;;;;;7.57;3.53;;;21.30;99.90;;;;;;5119414;28;20028;-73
2022/08/31 00:36:06;;;;;;;6.03;3.55;;;21.30;99.90;;;;;;5119829;28;20493;-74
2022/08/31 00:38:32;;;;;;;7.80;3.50;;;21.20;99.90;;;;;;5121521;28;20031;-73
2022/08/31 00:41:00;;;;;;;7.47;4.05;;;21.20;99.90;;;;;;5119865;28;20043;-73
2022/08/31 00:43:37;;;;;;;5.50;3.33;;;21.20;99.90;;;;;;5119798;28;20464;-74
2022/08/31 00:46:03;;;;;;;6.57;3.38;;;21.10;99.90;;;;;;5119728;28;20030;-73
2022/08/31 00:48:29;;;;;;;6.50;3.58;;;21.10;99.90;;;;;;5120949;28;20030;-73
2022/08/31 00:50:56;;;;;;;6.10;3.58;;;21.00;99.90;;;;;;5120583;27;20031;-73
2022/08/31 00:53:23;;;;;;;9.15;3.35;;;21.00;99.90;;;;;;5119267;28;20023;-74
2022/08/31 00:55:49;;;;;;;5.75;3.45;;;21.00;99.90;;;;;;5121009;28;20037;-74
2022/08/31 00:58:15;;;;;;;6.65;3.50;;;21.00;99.90;;;;;;5119349;28;20500;-73
2022/08/31 01:00:42;;;;;;;9.13;3.55;;;21.00;99.90;;;;;;5120911;28;20019;-74
2022/08/31 01:03:09;;;;;;;7.82;3.88;;;21.00;99.90;;;;;;5119175;28;20027;-74
2022/08/31 01:05:36;;;;;;;7.82;3.67;;;21.00;99.90;;;;;;5120171;28;20099;-73
2022/08/31 01:08:04;;;;;;;8.05;3.10;;;21.10;99.90;;;;;;5120745;28;20035;-74
2022/08/31 01:10:36;;;;;;;10.05;3.00;;;21.50;99.90;;;;;;5120371;28;20023;-74
2022/08/31 01:13:03;;;;;;;5.35;3.10;;;21.70;99.90;;;;;;5119012;28;20110;-74
2022/08/31 01:15:30;;;;;;;6.18;2.95;;;21.90;99.90;;;;;;5119203;28;20020;-74
2022/08/31 01:18:00;;;;;;;9.77;2.80;;;21.90;99.90;;;;;;5118825;28;20031;-73
2022/08/31 01:20:33;;;;;;;4.65;3.55;;;21.80;99.90;;;;;;5120035;28;20028;-73
2022/08/31 01:23:26;;;;;;;7.47;3.45;;;21.70;99.90;;;;;;5115686;28;20023;-74
2022/08/31 01:25:56;;;;;;;4.57;2.83;;;21.70;99.90;;;;;;5120047;28;20031;-73
2022/08/31 01:28:22;;;;;;;8.73;3.92;;;21.60;99.90;;;;;;5120058;27;20052;-75
2022/08/31 01:31:08;;;;;;;6.72;3.35;;;21.60;99.90;;;;;;5120071;28;20027;-74
2022/08/31 01:33:36;;;;;;;9.90;4.05;;;21.60;99.90;;;;;;5118353;28;20039;-74
2022/08/31 01:36:03;;;;;;;12.38;3.45;;;21.50;99.90;;;;;;5119848;28;20094;-74
2022/08/31 01:38:29;;;;;;;6.47;3.28;;;21.40;99.90;;;;;;5120110;28;20034;-73
2022/08/31 01:41:00;;;;;;;9.10;3.95;;;21.30;99.90;;;;;;5119414;28;20475;-73
2022/08/31 01:43:27;;;;;;;10.70;3.65;;;21.20;99.90;;;;;;5119638;28;20020;-74
2022/08/31 01:45:53;;;;;;;7.78;3.38;;;21.10;99.90;;;;;;5117857;28;20121;-74
2022/08/31 01:48:20;;;;;;;10.23;3.30;;;21.00;99.90;;;;;;5115320;28;20024;-74
2022/08/31 01:50:46;;;;;;;6.07;4.03;;;21.00;99.90;;;;;;5112579;28;20020;-73
2022/08/31 01:53:12;;;;;;;10.75;4.07;;;20.90;99.90;;;;;;5117651;28;20053;-74
2022/08/31 01:55:39;;;;;;;5.93;3.45;;;20.80;99.90;;;;;;5118533;28;20499;-73
2022/08/31 01:58:05;;;;;;;7.20;4.00;;;20.80;99.90;;;;;;5119510;28;20023;-74
2022/08/31 02:00:31;;;;;;;6.85;3.60;;;20.80;99.90;;;;;;5119577;28;20031;-74
2022/08/31 02:03:00;;;;;;;5.38;3.15;;;20.70;99.90;;;;;;5119480;28;20039;-74
2022/08/31 02:05:27;;;;;;;4.50;3.40;;;20.60;99.90;;;;;;5119254;28;20051;-74
2022/08/31 02:07:54;;;;;;;7.40;3.38;;;20.60;99.90;;;;;;5118106;28;20052;-73
2022/08/31 02:10:21;;;;;;;8.60;3.88;;;20.50;99.90;;;;;;5116243;28;20042;-74
2022/08/31 02:12:46;;;;;;;11.93;4.30;;;20.50;99.90;;;;;;5119257;28;20488;-74
2022/08/31 02:15:12;;;;;;;9.13;3.80;;;20.50;99.90;;;;;;5119024;28;20047;-74
2022/08/31 02:17:38;;;;;;;10.20;3.85;;;20.50;99.90;;;;;;5117588;28;20024;-73
2022/08/31 02:20:07;;;;;;;7.80;3.42;;;20.40;99.90;;;;;;5119130;28;20067;-74
2022/08/31 02:22:33;;;;;;;13.63;3.97;;;20.40;99.90;;;;;;5106719;28;20027;-73
2022/08/31 02:24:59;;;;;;;8.15;3.67;;;20.40;99.90;;;;;;5112389;28;20069;-75
2022/08/31 02:27:25;;;;;;;4.03;3.08;;;20.40;99.90;;;;;;5118727;28;20531;-73
2022/08/31 02:29:52;;;;;;;7.43;3.80;;;20.40;99.90;;;;;;5118956;28;20039;-73
2022/08/31 02:32:20;;;;;;;8.80;3.28;;;20.40;99.90;;;;;;5117378;28;20035;-73
2022/08/31 02:34:47;;;;;;;8.15;4.07;;;20.30;99.90;;;;;;5109767;28;20046;-74
2022/08/31 02:37:13;;;;;;;6.03;3.72;;;20.30;99.90;;;;;;5117567;28;20031;-73
2022/08/31 02:39:39;;;;;;;9.15;4.47;;;20.30;99.90;;;;;;5108251;28;20016;-74
2022/08/31 02:42:05;;;;;;;5.97;3.42;;;20.30;99.90;;;;;;5117433;28;20023;-73
2022/08/31 02:44:31;;;;;;;6.50;4.20;;;20.30;99.90;;;;;;5117251;28;20024;-74
2022/08/31 02:46:56;;;;;;;8.30;3.35;;;20.30;99.90;;;;;;5117181;28;20026;-74
2022/08/31 02:49:22;;;;;;;13.32;5.03;;;20.20;99.90;;;;;;5116731;28;20023;-74
2022/08/31 02:51:48;;;;;;;8.38;4.22;;;20.20;99.90;;;;;;5118442;28;20073;-74
2022/08/31 02:54:14;;;;;;;8.30;4.65;;;20.20;99.90;;;;;;5116919;28;20122;-73
2022/08/31 02:56:40;;;;;;;6.13;3.40;;;20.20;99.90;;;;;;5116282;28;20024;-73
2022/08/31 02:59:07;;;;;;;5.50;3.75;;;20.10;99.90;;;;;;5110283;28;20020;-73
2022/08/31 03:01:34;;;;;;;6.80;3.90;;;20.20;99.90;;;;;;5117887;28;20023;-74
2022/08/31 03:04:01;;;;;;;9.82;4.00;;;20.10;99.90;;;;;;5108582;28;20028;-73
2022/08/31 03:06:30;;;;;;;10.00;3.95;;;20.10;99.90;;;;;;5117012;28;20122;-73
2022/08/31 03:08:59;;;;;;;8.77;3.50;;;20.00;99.90;;;;;;5114440;28;20472;-73
2022/08/31 03:11:25;;;;;;;10.25;4.72;;;20.00;99.90;;;;;;5117904;28;20016;-74
2022/08/31 03:13:51;;;;;;;10.07;4.90;;;20.00;99.90;;;;;;5117837;28;20024;-73
2022/08/31 03:16:18;;;;;;;7.05;3.55;;;20.00;99.90;;;;;;5117800;28;20110;-73
2022/08/31 03:18:45;;;;;;;13.13;3.78;;;20.10;99.90;;;;;;5117104;28;20023;-73
2022/08/31 03:21:11;;;;;;;8.40;3.75;;;20.20;99.90;;;;;;5118185;28;20110;-74
2022/08/31 03:23:37;;;;;;;6.47;3.25;;;20.30;99.90;;;;;;5113666;28;20373;-73
2022/08/31 03:26:04;;;;;;;5.88;4.15;;;20.30;99.90;;;;;;5117796;28;20035;-73
2022/08/31 03:28:34;;;;;;;5.90;3.80;;;20.30;99.90;;;;;;5111425;28;20118;-73
2022/08/31 03:31:00;;;;;;;10.00;4.30;;;20.30;99.90;;;;;;5116483;28;20027;-73
2022/08/31 03:33:26;;;;;;;13.70;4.50;;;20.30;99.90;;;;;;5117663;28;20066;-74
2022/08/31 03:35:52;;;;;;;10.18;4.22;;;20.30;99.90;;;;;;5115885;28;20062;-73
2022/08/31 03:38:19;;;;;;;13.50;4.10;;;20.30;99.90;;;;;;5116396;28;20030;-73
2022/08/31 03:40:45;;;;;;;14.32;5.38;;;20.30;99.90;;;;;;5116306;28;20032;-73
2022/08/31 03:43:12;;;;;;;11.80;4.57;;;20.40;99.90;;;;;;5117825;28;20031;-73
2022/08/31 03:45:40;;;;;;;10.85;4.70;;;20.40;99.90;;;;;;5116140;28;20024;-73
2022/08/31 03:48:07;;;;;;;8.48;5.45;;;20.50;99.90;;;;;;5102497;28;20020;-73
2022/08/31 03:50:34;;;;;;;11.88;5.32;;;20.50;99.90;;;;;;5115920;28;20491;-74
2022/08/31 03:53:06;;;;;;;11.02;4.70;;;20.40;99.90;;;;;;5111012;28;20026;-73
2022/08/31 03:55:33;;;;;;;12.45;5.18;;;20.40;99.90;;;;;;5090393;28;20031;-73
2022/08/31 03:58:00;;;;;;;9.02;4.60;;;20.40;99.90;;;;;;5117593;28;20049;-74
2022/08/31 04:00:26;;;;;;;12.82;5.10;;;20.40;99.90;;;;;;5107856;28;20020;-74
2022/08/31 04:02:52;;;;;;;9.90;5.20;;;20.40;99.90;;;;;;5117629;28;20039;-73
2022/08/31 04:05:20;;;;;;;10.73;5.68;;;20.40;99.90;;;;;;5116470;28;20024;-73
2022/08/31 04:07:46;;;;;;;13.55;5.82;;;20.30;99.90;;;;;;5118607;28;20042;-74
2022/08/31 04:10:13;;;;;;;13.05;5.63;;;20.30;99.90;;;;;;5120133;28;20027;-73
2022/08/31 04:12:40;;;;;;;14.05;4.68;;;20.30;99.90;;;;;;5120501;28;20023;-71
2022/08/31 04:15:07;;;;;;;11.00;5.38;;;20.20;99.90;;;;;;5120033;28;20019;-74
2022/08/31 04:17:33;;;;;;;12.27;5.90;;;20.00;99.90;;;;;;5120141;28;20016;-74
2022/08/31 04:19:59;;;;;;;11.80;5.43;;;20.00;99.90;;;;;;5117947;28;20031;-73
2022/08/31 04:22:25;;;;;;;9.85;5.70;;;19.90;99.90;;;;;;5119937;28;20088;-73
2022/08/31 04:24:51;;;;;;;9.48;5.68;;;19.90;99.90;;;;;;5115344;28;20513;-74
2022/08/31 04:27:16;;;;;;;8.52;6.15;;;19.90;99.90;;;;;;5119682;28;20050;-73
2022/08/31 04:29:42;;;;;;;12.90;6.75;;;19.80;99.90;;;;;;5114089;28;20076;-73
2022/08/31 04:32:08;;;;;;;13.02;7.03;;;19.80;99.90;;;;;;5121012;28;20024;-71
2022/08/31 04:34:34;;;;;;;11.80;6.63;;;19.80;99.90;;;;;;5120949;28;20430;-71
2022/08/31 04:37:00;;;;;;;11.80;6.60;;;19.80;99.90;;;;;;5120688;28;20016;-71
2022/08/31 04:39:26;;;;;;;15.20;6.63;;;19.80;99.90;;;;;;5120926;28;20060;-71
2022/08/31 04:41:52;;;;;;;10.23;5.78;;;19.80;99.90;;;;;;5121322;28;20030;-71
2022/08/31 04:44:18;;;;;;;15.32;6.25;;;19.70;99.90;;;;;;5119712;28;20027;-71
2022/08/31 04:46:44;;;;;;;12.30;6.60;;;19.60;99.90;;;;;;5119414;28;20024;-71
2022/08/31 04:49:13;;;;;;;13.07;6.20;;;19.50;99.90;;;;;;5110145;28;20107;-71
2022/08/31 04:51:39;;;;;;;11.13;5.95;;;19.50;99.90;;;;;;5120501;28;20014;-71
2022/08/31 04:54:08;;;;;;;11.80;6.80;;;19.50;99.90;;;;;;5114519;28;20472;-71
2022/08/31 04:56:38;;;;;;;14.63;7.13;;;19.40;99.90;;;;;;5120539;28;20024;-71
2022/08/31 04:59:07;;;;;;;13.97;7.93;;;19.40;99.90;;;;;;5119716;28;20091;-73
2022/08/31 05:01:40;;;;;;;16.45;7.60;;;19.30;99.90;;;;;;5118404;28;20019;-71
2022/08/31 05:04:07;;;;;;;11.02;6.72;;;19.30;99.90;;;;;;5119390;28;20016;-71
2022/08/31 05:06:35;;;;;;;12.02;6.03;;;19.30;99.90;;;;;;5109679;28;20173;-71
2022/08/31 05:09:06;;;;;;;10.27;6.20;;;19.20;99.90;;;;;;5119376;28;20494;-71
2022/08/31 05:11:33;;;;;;;8.73;6.65;;;19.20;99.90;;;;;;5118113;28;20028;-71
2022/08/31 05:14:01;;;;;;;11.25;6.97;;;19.20;99.90;;;;;;5119541;28;20057;-71
2022/08/31 05:16:29;;;;;;;15.68;6.90;;;19.10;99.90;;;;;;5109694;28;20027;-71
2022/08/31 05:18:56;;;;;;;14.30;6.55;;;19.10;99.90;;;;;;5118896;28;20026;-71
2022/08/31 05:21:29;;;;;;;11.32;6.97;;;19.10;99.90;;;;;;5119126;28;20004;-71
2022/08/31 05:24:03;;;;;;;16.25;7.22;;;19.10;99.90;;;;;;5118302;28;20023;-71
2022/08/31 05:26:35;;;;;;;14.23;7.95;;;19.00;99.90;;;;;;5102139;28;20031;-71
2022/08/31 05:29:03;;;;;;;16.25;6.97;;;19.00;99.90;;;;;;5099871;28;20039;-71
2022/08/31 05:31:29;;;;;;;13.88;7.18;;;19.00;99.90;;;;;;5115803;28;20069;-71
2022/08/31 05:33:56;;;;;;;13.43;7.22;;;19.00;99.90;;;;;;5112306;28;20032;-71
2022/08/31 05:36:23;;;;;;;14.57;7.75;;;19.00;99.90;;;;;;5104667;28;20024;-71
2022/08/31 05:38:49;;;;;;;17.38;8.07;;;19.00;99.90;;;;;;5114594;28;20046;-71
2022/08/31 05:41:15;;;;;;;15.75;7.13;;;19.00;99.90;;;;;;5118905;28;20425;-72
2022/08/31 05:43:41;;;;;;;15.10;7.70;;;19.10;99.90;;;;;;5119542;28;20020;-72
2022/08/31 05:46:09;;;;;;;20.58;8.77;;;19.10;99.90;;;;;;5119599;28;20495;-71
2022/08/31 05:48:36;;;;;;;20.45;8.77;;;19.30;99.90;;;;;;5118311;28;20023;-71
2022/08/31 05:51:16;;;;;;;11.05;7.80;;;19.40;99.90;;;;;;5119532;28;20030;-72
2022/08/31 05:53:43;;;;;;;17.58;8.68;;;19.50;99.90;;;;;;5119537;28;20040;-72
2022/08/31 05:56:13;;;;;;;18.52;9.13;;;19.50;99.90;;;;;;5107822;28;20110;-72
2022/08/31 05:58:40;;;;;;;18.02;8.98;;;19.60;99.90;;;;;;5119507;28;20032;-72
2022/08/31 06:01:17;;;;;;;20.02;9.38;;;19.60;99.90;;;;;;5119345;28;20016;-72
2022/08/31 06:03:44;;;;;;;16.58;8.43;;;19.60;99.90;;;;;;5118967;28;20024;-72
2022/08/31 06:06:11;;;;;;;19.25;10.00;;;19.60;99.90;;;;;;5106728;28;20019;-72
2022/08/31 06:08:38;;;;;;;20.45;9.23;;;19.70;99.90;;;;;;5119357;28;20430;-72
2022/08/31 06:11:05;;;;;;;18.88;9.55;;;19.70;99.90;;;;;;5119524;28;20011;-71
2022/08/31 06:13:32;;;;;;;16.50;10.23;;;19.70;99.90;;;;;;5119152;28;20054;-72
2022/08/31 06:16:01;;;;;;;19.05;9.90;;;19.80;99.90;;;;;;5116761;28;20012;-72
2022/08/31 06:18:27;;;;;;;17.83;11.07;;;19.80;99.90;;;;;;5118183;28;20031;-72
2022/08/31 06:21:08;;;;;;;16.20;9.45;;;19.90;99.90;;;;;;5117340;28;20116;-72
2022/08/31 06:23:41;;;;;;;;;;;19.90;99.90;;;;;;5109885;28;20031;-71
2022/08/31 06:26:11;;;;;;;20.80;12.25;;;20.00;99.90;;;;;;5119126;28;19903;-72
2022/08/31 06:28:42;;;;;;;24.10;12.50;;;20.00;99.90;;;;;;5118745;28;20040;-72
2022/08/31 06:31:23;;;;;;;19.95;12.25;;;20.00;99.90;;;;;;5118084;28;20073;-72
2022/08/31 06:33:49;;;;;;;;;;;20.10;99.90;;;;;;5114712;28;20023;-72
2022/08/31 06:36:17;;;;;;;22.33;12.73;;;20.00;99.90;;;;;;5117311;28;20241;-72
2022/08/31 06:38:43;;;;;;;22.05;13.40;;;20.10;99.90;;;;;;5118688;28;20039;-72
2022/08/31 06:41:22;;;;;;;18.52;12.52;;;20.10;99.90;;;;;;5110898;28;20109;-71
2022/08/31 06:43:48;;;;;;;22.67;13.57;;;20.10;99.90;;;;;;5117525;28;20045;-70
2022/08/31 06:46:17;;;;;;;27.70;13.68;;;20.10;99.90;;;;;;5118529;28;20053;-72
2022/08/31 06:48:43;;;;;;;29.15;13.57;;;20.00;99.90;;;;;;5106298;28;20028;-71
2022/08/31 06:51:10;;;;;;;20.88;13.48;;;20.10;99.90;;;;;;5115081;28;20050;-72
2022/08/31 06:53:39;;;;;;;27.05;15.65;;;20.10;99.90;;;;;;5111531;28;20596;-71
2022/08/31 06:56:11;;;;;;;31.13;15.15;;;20.00;99.90;;;;;;5114970;28;20016;-71
2022/08/31 06:58:38;;;;;;;30.40;16.27;;;20.00;99.90;;;;;;5118553;27;20400;-72
2022/08/31 07:01:08;;;;;;;26.58;16.17;;;20.00;99.90;;;;;;5115999;28;20024;-74
2022/08/31 07:03:36;;;;;;;26.92;14.88;;;19.90;99.90;;;;;;5104671;28;20027;-74
2022/08/31 07:06:08;;;;;;;21.73;14.88;;;20.00;99.90;;;;;;5106589;28;20361;-74
2022/08/31 07:08:35;;;;;;;28.95;14.80;;;20.00;99.90;;;;;;5117708;28;20080;-74
2022/08/31 07:11:02;;;;;;;23.20;14.50;;;20.10;99.90;;;;;;5108456;28;20027;-74
2022/08/31 07:13:29;;;;;;;25.20;14.75;;;20.20;99.90;;;;;;5116849;28;20092;-75
2022/08/31 07:16:10;;;;;;;23.70;14.90;;;20.30;99.90;;;;;;5117448;28;20019;-75
2022/08/31 07:18:36;;;;;;;20.35;15.10;;;20.30;99.90;;;;;;5099668;28;20027;-75
2022/08/31 07:21:11;;;;;;;28.10;16.58;;;20.30;99.90;;;;;;5110753;28;20156;-74
2022/08/31 07:23:37;;;;;;;25.02;14.90;;;20.40;99.90;;;;;;5115685;28;20051;-75
2022/08/31 07:26:09;;;;;;;23.65;14.50;;;20.40;99.90;;;;;;5092920;28;20019;-74
2022/08/31 07:28:37;;;;;;;27.90;15.27;;;20.40;99.90;;;;;;5097933;28;20102;-75
2022/08/31 07:31:04;;;;;;;18.10;13.18;;;20.50;99.90;;;;;;5116206;28;20490;-74
2022/08/31 07:33:40;;;;;;;22.40;15.07;;;20.60;99.90;;;;;;5117493;28;20082;-75
2022/08/31 07:36:15;;;;;;;22.95;14.70;;;20.60;99.90;;;;;;5095074;28;20024;-72
2022/08/31 07:44:12;;;;;;;25.38;15.30;;;20.80;99.90;;;;;;5117539;28;20030;-74
2022/08/31 07:46:39;;;;;;;26.90;14.05;;;20.80;99.90;;;;;;5103048;28;20027;-75
2022/08/31 07:49:11;;;;;;;26.00;14.70;;;20.80;99.90;;;;;;5104782;28;20024;-77
2022/08/31 07:51:44;;;;;;;23.13;14.27;;;21.00;99.90;;;;;;5115234;28;20410;-77
2022/08/31 07:54:12;;;;;;;22.25;15.07;;;21.00;99.90;;;;;;5103363;28;20032;-75
2022/08/31 07:56:40;;;;;;;22.50;13.00;;;21.20;99.90;;;;;;5113950;28;20499;-73
2022/08/31 07:59:06;;;;;;;26.45;14.43;;;21.30;99.90;;;;;;5114176;28;20019;-72
2022/08/31 08:01:33;;;;;;;24.20;15.13;;;21.40;99.90;;;;;;5116752;28;20875;-74
2022/08/31 08:04:01;;;;;;;33.25;14.43;;;21.50;99.90;;;;;;5111650;28;20061;-73
2022/08/31 08:06:28;;;;;;;24.75;13.30;;;21.60;99.90;;;;;;5116758;28;20411;-73
2022/08/31 08:08:54;;;;;;;27.25;13.63;;;21.80;99.90;;;;;;5115058;28;20015;-72
2022/08/31 08:11:20;;;;;;;22.17;11.70;;;21.90;99.90;;;;;;5116071;28;20035;-73
2022/08/31 08:13:48;;;;;;;21.40;11.93;;;22.00;99.90;;;;;;5112765;28;20039;-73
2022/08/31 08:16:14;;;;;;;23.00;12.48;;;22.10;99.90;;;;;;5115530;28;20114;-74
2022/08/31 08:18:40;;;;;;;25.40;12.10;;;22.10;99.90;;;;;;5102536;28;20472;-73
2022/08/31 08:21:07;;;;;;;25.95;13.55;;;22.10;99.90;;;;;;5114212;28;20463;-73
2022/08/31 08:23:33;;;;;;;20.23;12.00;;;22.10;99.90;;;;;;5115668;28;20495;-73
2022/08/31 08:26:05;;;;;;;23.30;12.20;;;22.30;99.90;;;;;;5109615;28;20031;-73
2022/08/31 08:28:31;;;;;;;24.98;11.93;;;22.40;99.90;;;;;;5113261;28;20101;-73
2022/08/31 08:31:00;;;;;;;22.40;11.77;;;22.50;99.90;;;;;;5107446;28;20028;-77
2022/08/31 08:33:30;;;;;;;20.45;10.40;;;22.70;99.90;;;;;;5110025;28;20091;-74
2022/08/31 08:36:02;;;;;;;19.95;11.25;;;23.00;99.90;;;;;;5116801;28;20061;-77
2022/08/31 08:38:30;;;;;;;20.30;10.77;;;23.10;99.90;;;;;;5115299;28;20027;-76
2022/08/31 08:41:00;;;;;;;14.60;9.68;;;23.10;99.90;;;;;;5110742;28;20024;-74
2022/08/31 08:43:33;;;;;;;25.05;11.52;;;23.10;99.90;;;;;;5116963;28;20023;-76
2022/08/31 08:46:02;;;;;;;20.50;11.02;;;23.20;99.90;;;;;;5115367;28;20024;-76
2022/08/31 08:48:31;;;;;;;19.02;10.60;;;23.20;99.90;;;;;;5116413;28;20020;-75
2022/08/31 08:51:00;;;;;;;25.08;11.27;;;23.10;99.90;;;;;;5115358;28;20058;-75
2022/08/31 08:53:29;;;;;;;16.50;10.13;;;23.10;99.90;;;;;;5117075;28;20028;-75
2022/08/31 08:55:55;;;;;;;19.17;11.10;;;23.10;99.90;;;;;;5120309;28;20016;-77
2022/08/31 08:58:23;;;;;;;20.90;10.98;;;23.10;99.90;;;;;;5119219;28;20151;-75
2022/08/31 09:00:52;;;;;;;18.95;10.05;;;23.20;99.90;;;;;;5120191;28;20016;-76
2022/08/31 09:03:32;;;;;;;25.58;9.38;;;23.30;99.90;;;;;;5118562;28;20052;-77
2022/08/31 09:06:13;;;;;;;18.60;10.45;;;23.50;99.90;;;;;;5118665;28;20476;-76
2022/08/31 09:08:53;;;;;;;17.23;9.23;;;23.60;99.90;;;;;;5118828;28;20031;-75
2022/08/31 09:11:45;;;;;;;19.05;9.77;;;23.70;99.90;;;;;;5119114;28;20027;-77
2022/08/31 09:14:32;;;;;;;20.70;10.50;;;23.70;99.90;;;;;;5120157;28;20027;-75
2022/08/31 09:17:15;;;;;;;14.70;8.40;;;23.70;99.90;;;;;;5115822;28;20108;-77
2022/08/31 09:19:59;;;;;;;15.48;9.18;;;23.80;99.90;;;;;;5117341;28;20056;-76
2022/08/31 09:22:30;;;;;;;13.52;9.40;;;23.90;99.90;;;;;;5108895;28;20084;-76
2022/08/31 09:24:58;;;;;;;16.60;9.95;;;23.90;99.90;;;;;;5119811;28;20023;-76
2022/08/31 09:27:47;;;;;;;12.65;8.40;;;24.10;99.90;;;;;;5117791;28;20048;-75
2022/08/31 09:30:37;;;;;;;14.13;9.02;;;24.20;99.90;;;;;;5105333;28;20012;-75
2022/08/31 09:33:03;;;;;;;25.27;9.13;;;24.20;99.90;;;;;;5100815;28;20119;-77
2022/08/31 09:35:39;;;;;;;17.00;8.02;;;24.50;99.90;;;;;;5114671;28;20051;-76
2022/08/31 09:38:09;;;;;;;14.00;8.48;;;24.60;99.90;;;;;;5119214;28;20019;-75
2022/08/31 09:40:48;;;;;;;19.05;9.93;;;24.80;99.90;;;;;;5111960;28;20020;-76
2022/08/31 09:43:26;;;;;;;14.60;8.70;;;24.80;99.90;;;;;;5118204;28;20024;-76
2022/08/31 09:46:21;;;;;;;19.98;8.00;;;24.90;99.90;;;;;;5100678;28;20557;-75
2022/08/31 09:48:51;;;;;;;14.57;8.23;;;25.00;99.90;;;;;;5118238;28;20459;-78
2022/08/31 09:51:36;;;;;;;16.08;8.25;;;24.90;99.90;;;;;;5118606;28;20023;-76
2022/08/31 09:57:00;;;;;;;10.98;7.60;;;24.90;99.90;;;;;;5119655;28;20034;-75
2022/08/31 09:59:33;;;;;;;12.70;7.30;;;25.00;99.90;;;;;;5104801;28;20024;-74
2022/08/31 10:02:01;;;;;;;15.85;8.18;;;25.30;99.90;;;;;;5117823;28;20043;-78
2022/08/31 10:04:30;;;;;;;12.38;6.38;;;25.50;99.90;;;;;;5116566;28;20020;-78
2022/08/31 10:07:36;;;;;;;13.52;8.48;;;25.80;99.90;;;;;;5103645;28;20074;-75
2022/08/31 10:10:09;;;;;;;14.23;7.88;;;25.80;99.90;;;;;;5103470;28;20125;-78
2022/08/31 10:12:54;;;;;;;13.82;7.45;;;25.90;99.90;;;;;;5101315;28;20027;-76
2022/08/31 10:15:32;;;;;;;11.63;6.80;;;25.80;99.90;;;;;;5112963;28;20046;-73
2022/08/31 10:18:21;;;;;;;11.40;6.68;;;25.90;99.90;;;;;;5107294;28;20016;-73
2022/08/31 10:20:54;;;;;;;12.50;6.88;;;26.00;99.90;;;;;;5104767;28;20016;-75
2022/08/31 10:23:36;;;;;;;14.07;6.90;;;26.10;99.90;;;;;;5111883;28;20024;-79
2022/08/31 10:26:25;;;;;;;10.82;6.18;;;26.10;99.90;;;;;;5112661;28;20072;-78
2022/08/31 10:28:54;;;;;;;13.38;6.15;;;26.00;99.90;;;;;;5072660;28;20043;-77
2022/08/31 10:31:43;;;;;;;10.40;6.07;;;26.00;99.90;;;;;;5071552;28;20062;-76
2022/08/31 10:37:35;;;;;;;10.82;6.32;;;25.80;99.90;;;;;;5066418;28;20108;-76
2022/08/31 10:40:15;;;;;;;14.80;7.78;;;25.70;99.90;;;;;;5076581;28;20031;-76
2022/08/31 10:42:49;;;;;;;14.43;6.85;;;25.90;99.90;;;;;;5076283;28;20028;-75
2022/08/31 10:45:22;;;;;;;14.80;7.05;;;26.30;99.90;;;;;;5059714;28;20074;-78
2022/08/31 10:47:53;;;;;;;12.60;7.38;;;26.50;99.90;;;;;;5074123;28;20024;-77
2022/08/31 10:50:28;;;;;;;11.32;7.07;;;26.70;99.90;;;;;;5072602;28;20051;-76
2022/08/31 10:53:04;;;;;;;15.25;7.60;;;26.80;99.90;;;;;;5065784;28;20133;-76
2022/08/31 10:56:01;;;;;;;12.73;5.93;;;26.70;99.90;;;;;;5070231;28;20032;-75
2022/08/31 10:58:53;;;;;;;11.90;6.13;;;26.70;99.90;;;;;;5065243;28;20024;-77
2022/08/31 11:01:39;;;;;;;16.80;6.00;;;26.80;99.90;;;;;;5076832;28;20113;-76
2022/08/31 11:04:11;;;;;;;10.82;5.95;;;26.80;99.90;;;;;;5066948;28;20017;-77
2022/08/31 11:06:52;;;;;;;9.32;5.28;;;26.90;99.90;;;;;;5067420;28;20094;-76
2022/08/31 11:09:48;;;;;;;8.68;5.30;;;27.10;99.90;;;;;;5062455;28;20021;-76
2022/08/31 11:12:20;;;;;;;8.50;5.20;;;27.00;99.90;;;;;;5067444;28;20124;-77
2022/08/31 11:15:08;;;;;;;14.35;5.47;;;27.00;99.90;;;;;;5066102;28;20029;-76
2022/08/31 11:17:54;;;;;;;13.85;6.13;;;27.00;99.90;;;;;;5066179;28;20501;-78
2022/08/31 11:20:27;;;;;;;10.27;5.57;;;27.00;99.90;;;;;;5073173;28;20067;-76
2022/08/31 11:23:08;;;;;;;10.80;5.32;;;26.70;99.90;;;;;;5066815;28;20032;-76
2022/08/31 11:25:49;;;;;;;11.77;5.65;;;26.60;99.90;;;;;;5067673;28;20039;-76
2022/08/31 11:29:11;;;;;;;13.65;6.38;;;26.20;99.90;;;;;;5109672;28;20051;-75
2022/08/31 11:31:39;;;;;;;14.65;5.97;;;26.10;99.90;;;;;;5073041;28;20400;-76
2022/08/31 11:34:24;;;;;;;9.23;6.95;;;26.00;99.90;;;;;;5113645;28;20057;-77
2022/08/31 11:36:59;;;;;;;10.20;6.63;;;25.90;99.90;;;;;;5117434;28;20024;-77
2022/08/31 11:39:34;;;;;;;12.95;7.28;;;25.80;99.90;;;;;;5110397;28;20091;-80
2022/08/31 11:42:17;;;;;;;13.70;7.55;;;25.60;99.90;;;;;;5117651;28;20019;-77
2022/08/31 11:44:58;;;;;;;15.63;7.32;;;25.40;99.90;;;;;;5113661;28;20035;-77
2022/08/31 11:47:26;;;;;;;17.40;8.68;;;25.20;99.90;;;;;;5116744;28;20422;-76
2022/08/31 11:50:01;;;;;;;18.10;8.15;;;25.00;99.90;;;;;;5111965;28;20035;-77
2022/08/31 11:52:30;;;;;;;16.33;8.20;;;24.90;99.90;;;;;;5111845;28;20045;-77
2022/08/31 11:55:03;;;;;;;17.93;8.27;;;24.90;99.90;;;;;;5116078;28;20055;-76
2022/08/31 11:57:33;;;;;;;16.20;8.85;;;24.90;99.90;;;;;;5117213;28;20034;-76
2022/08/31 11:59:59;;;;;;;;;;;25.00;99.90;;;;;;5114470;28;20098;-76
2022/08/31 12:02:25;;;;;;;15.75;7.75;;;25.10;99.90;;;;;;5106497;28;19939;-76
2022/08/31 12:05:01;;;;;;;14.23;6.80;;;25.10;99.90;;;;;;5101570;28;20376;-76
2022/08/31 12:07:33;;;;;;;16.73;7.85;;;25.20;99.90;;;;;;5107103;28;20106;-76
2022/08/31 12:10:17;;;;;;;16.30;7.53;;;25.30;99.90;;;;;;5107396;28;20050;-77
2022/08/31 12:12:54;;;;;;;11.45;6.90;;;25.40;99.90;;;;;;5116893;28;20039;-75
2022/08/31 12:15:51;;;;;;;10.15;7.45;;;25.50;99.90;;;;;;5115963;28;20020;-76
2022/08/31 12:18:43;;;;;;;13.88;9.43;;;25.60;99.90;;;;;;5111656;28;20018;-76
2022/08/31 12:24:29;;;;;;;12.95;8.32;;;25.70;99.90;;;;;;5116930;28;20034;-76
2022/08/31 12:27:19;;;;;;;20.92;8.38;;;25.70;99.90;;;;;;5115132;28;20047;-76
2022/08/31 12:29:45;;;;;;;12.10;6.88;;;25.80;99.90;;;;;;5114426;28;20051;-76
2022/08/31 12:32:27;;;;;;;17.85;7.30;;;25.70;99.90;;;;;;5121200;28;20030;-76
2022/08/31 12:35:15;;;;;;;16.20;7.65;;;25.60;99.90;;;;;;5120648;28;20042;-76
2022/08/31 12:37:41;;;;;;;16.20;8.35;;;25.40;99.90;;;;;;5110989;28;20031;-76
2022/08/31 12:40:17;;;;;;;16.30;7.55;;;25.30;99.90;;;;;;5120721;28;20024;-77
2022/08/31 12:42:57;;;;;;;26.20;9.57;;;25.30;99.90;;;;;;5121047;28;20034;-76
2022/08/31 12:45:52;;;;;;;13.77;7.57;;;25.20;99.90;;;;;;5119224;28;20030;-76
2022/08/31 12:48:39;;;;;;;14.85;8.23;;;25.30;99.90;;;;;;5120649;28;20388;-76
2022/08/31 12:51:38;;;;;;;13.25;7.25;;;25.30;99.90;;;;;;5116022;28;20046;-76
2022/08/31 12:54:15;;;;;;;13.70;7.47;;;25.50;99.90;;;;;;5117228;28;20024;-76
2022/08/31 12:56:46;;;;;;;14.02;6.70;;;25.50;99.90;;;;;;5119585;28;20030;-76
2022/08/31 12:59:15;;;;;;;11.25;7.22;;;25.50;99.90;;;;;;5120327;28;20024;-77
2022/08/31 13:01:45;;;;;;;18.17;7.55;;;25.60;99.90;;;;;;5119198;28;20091;-76
2022/08/31 13:04:14;;;;;;;14.52;7.13;;;25.70;99.90;;;;;;5119317;28;20019;-77
2022/08/31 13:06:43;;;;;;;19.35;7.30;;;25.90;99.90;;;;;;5120667;28;20026;-77
2022/08/31 13:09:25;;;;;;;11.50;7.10;;;26.00;99.90;;;;;;5120243;28;20023;-77
2022/08/31 13:11:53;;;;;;;12.63;7.28;;;26.00;99.90;;;;;;5120388;28;20035;-74
2022/08/31 13:14:27;;;;;;;20.60;7.65;;;26.00;99.90;;;;;;5119902;28;20026;-74
2022/08/31 13:17:03;;;;;;;13.23;6.53;;;26.00;99.90;;;;;;5117430;28;20496;-75